<?xml version="1.0" encoding="UTF-8" standalone="no" ?>
<gpx xmlns="http://www.topografix.com/GPX/1/1" xmlns:xsi="http://www.w3.org/2001/XMLSchema-instance" xsi:schemaLocation="http://www.topografix.com/GPX/1/1 http://www.topografix.com/GPX/1/1/gpx.xsd" version="1.1" creator="VisuGPX - https://www.visugpx.com">
  <metadata>
    <name>2025-01-14  Randonnée TwoNav</name>
    <desc><![CDATA[2025-01-14_160614.trk]]></desc>
  </metadata>
  <trk>
    <name><![CDATA[2025-01-14  Randonnée TwoNav_1]]></name>
    <trkseg>
      <trkpt lat="48.20999" lon="6.73693">
        <ele>488</ele>
        <time>2025-01-14T15:06:14Z</time>
      </trkpt>
      <trkpt lat="48.20998" lon="6.73686">
        <ele>487.4</ele>
        <time>2025-01-14T15:06:15Z</time>
      </trkpt>
      <trkpt lat="48.20997" lon="6.7368">
        <ele>486.7</ele>
        <time>2025-01-14T15:06:16Z</time>
      </trkpt>
      <trkpt lat="48.20995" lon="6.73673">
        <ele>485.9</ele>
        <time>2025-01-14T15:06:25Z</time>
      </trkpt>
      <trkpt lat="48.20994" lon="6.73667">
        <ele>485</ele>
        <time>2025-01-14T15:06:34Z</time>
      </trkpt>
      <trkpt lat="48.20992" lon="6.7366">
        <ele>484</ele>
        <time>2025-01-14T15:06:43Z</time>
      </trkpt>
      <trkpt lat="48.20991" lon="6.73653">
        <ele>482.9</ele>
        <time>2025-01-14T15:06:55Z</time>
      </trkpt>
      <trkpt lat="48.2099" lon="6.73647">
        <ele>481.7</ele>
        <time>2025-01-14T15:07:08Z</time>
      </trkpt>
      <trkpt lat="48.20988" lon="6.7364">
        <ele>480.3</ele>
        <time>2025-01-14T15:07:08Z</time>
      </trkpt>
      <trkpt lat="48.20979" lon="6.73639">
        <ele>477.5</ele>
        <time>2025-01-14T15:07:16Z</time>
      </trkpt>
      <trkpt lat="48.20977" lon="6.73626">
        <ele>474.9</ele>
        <time>2025-01-14T15:07:25Z</time>
      </trkpt>
      <trkpt lat="48.20974" lon="6.73612">
        <ele>472.6</ele>
        <time>2025-01-14T15:07:36Z</time>
      </trkpt>
      <trkpt lat="48.20976" lon="6.73598">
        <ele>471.1</ele>
        <time>2025-01-14T15:07:42Z</time>
      </trkpt>
      <trkpt lat="48.20977" lon="6.73584">
        <ele>470.7</ele>
        <time>2025-01-14T15:07:49Z</time>
      </trkpt>
      <trkpt lat="48.20982" lon="6.73572">
        <ele>471.1</ele>
        <time>2025-01-14T15:07:58Z</time>
      </trkpt>
      <trkpt lat="48.20982" lon="6.73558">
        <ele>471.9</ele>
        <time>2025-01-14T15:08:13Z</time>
      </trkpt>
      <trkpt lat="48.20982" lon="6.73559">
        <ele>471.9</ele>
        <time>2025-01-14T15:08:17Z</time>
      </trkpt>
      <trkpt lat="48.20983" lon="6.7356">
        <ele>472</ele>
        <time>2025-01-14T15:08:18Z</time>
      </trkpt>
      <trkpt lat="48.20983" lon="6.73562">
        <ele>472.1</ele>
        <time>2025-01-14T15:08:26Z</time>
      </trkpt>
      <trkpt lat="48.20983" lon="6.73562">
        <ele>472.2</ele>
        <time>2025-01-14T15:08:27Z</time>
      </trkpt>
      <trkpt lat="48.20982" lon="6.73563">
        <ele>472.2</ele>
        <time>2025-01-14T15:08:28Z</time>
      </trkpt>
      <trkpt lat="48.20974" lon="6.73558">
        <ele>473.3</ele>
        <time>2025-01-14T15:08:48Z</time>
      </trkpt>
      <trkpt lat="48.20969" lon="6.73545">
        <ele>474.6</ele>
        <time>2025-01-14T15:08:56Z</time>
      </trkpt>
      <trkpt lat="48.20967" lon="6.7353">
        <ele>475.9</ele>
        <time>2025-01-14T15:09:05Z</time>
      </trkpt>
      <trkpt lat="48.20966" lon="6.73516">
        <ele>477.2</ele>
        <time>2025-01-14T15:09:13Z</time>
      </trkpt>
      <trkpt lat="48.20972" lon="6.73506">
        <ele>478.6</ele>
        <time>2025-01-14T15:09:22Z</time>
      </trkpt>
      <trkpt lat="48.20981" lon="6.735">
        <ele>479.9</ele>
        <time>2025-01-14T15:09:29Z</time>
      </trkpt>
      <trkpt lat="48.20989" lon="6.73493">
        <ele>481.3</ele>
        <time>2025-01-14T15:09:38Z</time>
      </trkpt>
      <trkpt lat="48.20998" lon="6.73488">
        <ele>482.4</ele>
        <time>2025-01-14T15:09:45Z</time>
      </trkpt>
      <trkpt lat="48.21007" lon="6.73484">
        <ele>483.3</ele>
        <time>2025-01-14T15:09:54Z</time>
      </trkpt>
      <trkpt lat="48.21017" lon="6.73481">
        <ele>483.8</ele>
        <time>2025-01-14T15:10:06Z</time>
      </trkpt>
      <trkpt lat="48.21027" lon="6.73478">
        <ele>483</ele>
        <time>2025-01-14T15:10:15Z</time>
      </trkpt>
      <trkpt lat="48.21035" lon="6.73472">
        <ele>482.2</ele>
        <time>2025-01-14T15:10:22Z</time>
      </trkpt>
      <trkpt lat="48.21041" lon="6.7346">
        <ele>481.4</ele>
        <time>2025-01-14T15:10:30Z</time>
      </trkpt>
      <trkpt lat="48.21047" lon="6.73449">
        <ele>480.8</ele>
        <time>2025-01-14T15:10:38Z</time>
      </trkpt>
      <trkpt lat="48.21052" lon="6.73438">
        <ele>480.3</ele>
        <time>2025-01-14T15:10:46Z</time>
      </trkpt>
      <trkpt lat="48.21059" lon="6.73427">
        <ele>479.7</ele>
        <time>2025-01-14T15:10:54Z</time>
      </trkpt>
      <trkpt lat="48.21066" lon="6.73417">
        <ele>479.2</ele>
        <time>2025-01-14T15:11:02Z</time>
      </trkpt>
      <trkpt lat="48.21072" lon="6.73406">
        <ele>478.6</ele>
        <time>2025-01-14T15:11:10Z</time>
      </trkpt>
      <trkpt lat="48.21078" lon="6.73395">
        <ele>478.1</ele>
        <time>2025-01-14T15:11:18Z</time>
      </trkpt>
      <trkpt lat="48.21084" lon="6.73385">
        <ele>477.5</ele>
        <time>2025-01-14T15:11:26Z</time>
      </trkpt>
      <trkpt lat="48.2109" lon="6.73374">
        <ele>477</ele>
        <time>2025-01-14T15:11:34Z</time>
      </trkpt>
      <trkpt lat="48.21095" lon="6.73362">
        <ele>476.6</ele>
        <time>2025-01-14T15:11:43Z</time>
      </trkpt>
      <trkpt lat="48.211" lon="6.7335">
        <ele>476.2</ele>
        <time>2025-01-14T15:11:51Z</time>
      </trkpt>
      <trkpt lat="48.21105" lon="6.73337">
        <ele>475.8</ele>
        <time>2025-01-14T15:11:59Z</time>
      </trkpt>
      <trkpt lat="48.21107" lon="6.73322">
        <ele>475.3</ele>
        <time>2025-01-14T15:12:08Z</time>
      </trkpt>
      <trkpt lat="48.21111" lon="6.73309">
        <ele>474.7</ele>
        <time>2025-01-14T15:12:16Z</time>
      </trkpt>
      <trkpt lat="48.21117" lon="6.73296">
        <ele>473.9</ele>
        <time>2025-01-14T15:12:25Z</time>
      </trkpt>
      <trkpt lat="48.21122" lon="6.73283">
        <ele>473.1</ele>
        <time>2025-01-14T15:12:35Z</time>
      </trkpt>
      <trkpt lat="48.21124" lon="6.73269">
        <ele>472.3</ele>
        <time>2025-01-14T15:12:44Z</time>
      </trkpt>
      <trkpt lat="48.21128" lon="6.73256">
        <ele>471.6</ele>
        <time>2025-01-14T15:12:53Z</time>
      </trkpt>
      <trkpt lat="48.2113" lon="6.73242">
        <ele>471</ele>
        <time>2025-01-14T15:13:01Z</time>
      </trkpt>
      <trkpt lat="48.21133" lon="6.73229">
        <ele>470.5</ele>
        <time>2025-01-14T15:13:13Z</time>
      </trkpt>
      <trkpt lat="48.21133" lon="6.73215">
        <ele>470.1</ele>
        <time>2025-01-14T15:13:21Z</time>
      </trkpt>
      <trkpt lat="48.21137" lon="6.73201">
        <ele>469.8</ele>
        <time>2025-01-14T15:13:29Z</time>
      </trkpt>
      <trkpt lat="48.21137" lon="6.73187">
        <ele>469.6</ele>
        <time>2025-01-14T15:13:37Z</time>
      </trkpt>
      <trkpt lat="48.2114" lon="6.73174">
        <ele>469.3</ele>
        <time>2025-01-14T15:13:44Z</time>
      </trkpt>
      <trkpt lat="48.21142" lon="6.7316">
        <ele>469.1</ele>
        <time>2025-01-14T15:13:53Z</time>
      </trkpt>
      <trkpt lat="48.21144" lon="6.73146">
        <ele>469.1</ele>
        <time>2025-01-14T15:14:02Z</time>
      </trkpt>
      <trkpt lat="48.21149" lon="6.73133">
        <ele>469.3</ele>
        <time>2025-01-14T15:14:10Z</time>
      </trkpt>
      <trkpt lat="48.21151" lon="6.73119">
        <ele>469.8</ele>
        <time>2025-01-14T15:14:19Z</time>
      </trkpt>
      <trkpt lat="48.21152" lon="6.73103">
        <ele>470.6</ele>
        <time>2025-01-14T15:14:27Z</time>
      </trkpt>
      <trkpt lat="48.21155" lon="6.7309">
        <ele>471.2</ele>
        <time>2025-01-14T15:14:35Z</time>
      </trkpt>
      <trkpt lat="48.21158" lon="6.73076">
        <ele>471.9</ele>
        <time>2025-01-14T15:14:44Z</time>
      </trkpt>
      <trkpt lat="48.21163" lon="6.73064">
        <ele>472.4</ele>
        <time>2025-01-14T15:14:53Z</time>
      </trkpt>
      <trkpt lat="48.21169" lon="6.73053">
        <ele>472.8</ele>
        <time>2025-01-14T15:15:02Z</time>
      </trkpt>
      <trkpt lat="48.21176" lon="6.73043">
        <ele>472.9</ele>
        <time>2025-01-14T15:15:10Z</time>
      </trkpt>
      <trkpt lat="48.2118" lon="6.7303">
        <ele>472.8</ele>
        <time>2025-01-14T15:15:20Z</time>
      </trkpt>
      <trkpt lat="48.21181" lon="6.73017">
        <ele>472.6</ele>
        <time>2025-01-14T15:15:28Z</time>
      </trkpt>
      <trkpt lat="48.21182" lon="6.73002">
        <ele>472.3</ele>
        <time>2025-01-14T15:15:37Z</time>
      </trkpt>
      <trkpt lat="48.2118" lon="6.72987">
        <ele>472.1</ele>
        <time>2025-01-14T15:15:45Z</time>
      </trkpt>
      <trkpt lat="48.2118" lon="6.72974">
        <ele>472</ele>
        <time>2025-01-14T15:15:53Z</time>
      </trkpt>
      <trkpt lat="48.2118" lon="6.7296">
        <ele>471.9</ele>
        <time>2025-01-14T15:16:01Z</time>
      </trkpt>
      <trkpt lat="48.21181" lon="6.72947">
        <ele>471.6</ele>
        <time>2025-01-14T15:16:08Z</time>
      </trkpt>
      <trkpt lat="48.21186" lon="6.72933">
        <ele>471.3</ele>
        <time>2025-01-14T15:16:17Z</time>
      </trkpt>
      <trkpt lat="48.21192" lon="6.72922">
        <ele>471</ele>
        <time>2025-01-14T15:16:26Z</time>
      </trkpt>
      <trkpt lat="48.21198" lon="6.7291">
        <ele>470.8</ele>
        <time>2025-01-14T15:16:35Z</time>
      </trkpt>
      <trkpt lat="48.21204" lon="6.72899">
        <ele>470.8</ele>
        <time>2025-01-14T15:16:43Z</time>
      </trkpt>
      <trkpt lat="48.21208" lon="6.72887">
        <ele>470.8</ele>
        <time>2025-01-14T15:16:51Z</time>
      </trkpt>
      <trkpt lat="48.21214" lon="6.72876">
        <ele>470.9</ele>
        <time>2025-01-14T15:16:59Z</time>
      </trkpt>
      <trkpt lat="48.21223" lon="6.72872">
        <ele>471.1</ele>
        <time>2025-01-14T15:17:08Z</time>
      </trkpt>
      <trkpt lat="48.2123" lon="6.72879">
        <ele>470.7</ele>
        <time>2025-01-14T15:17:16Z</time>
      </trkpt>
      <trkpt lat="48.21238" lon="6.72887">
        <ele>470.3</ele>
        <time>2025-01-14T15:17:24Z</time>
      </trkpt>
      <trkpt lat="48.21246" lon="6.72894">
        <ele>469.9</ele>
        <time>2025-01-14T15:17:33Z</time>
      </trkpt>
      <trkpt lat="48.21254" lon="6.72902">
        <ele>469.5</ele>
        <time>2025-01-14T15:17:42Z</time>
      </trkpt>
      <trkpt lat="48.21263" lon="6.72902">
        <ele>469.1</ele>
        <time>2025-01-14T15:17:51Z</time>
      </trkpt>
      <trkpt lat="48.21273" lon="6.72906">
        <ele>468.7</ele>
        <time>2025-01-14T15:18:00Z</time>
      </trkpt>
      <trkpt lat="48.21282" lon="6.72905">
        <ele>468.3</ele>
        <time>2025-01-14T15:18:07Z</time>
      </trkpt>
      <trkpt lat="48.21291" lon="6.72903">
        <ele>468</ele>
        <time>2025-01-14T15:18:15Z</time>
      </trkpt>
      <trkpt lat="48.21301" lon="6.72901">
        <ele>467.8</ele>
        <time>2025-01-14T15:18:23Z</time>
      </trkpt>
      <trkpt lat="48.2131" lon="6.72901">
        <ele>467.7</ele>
        <time>2025-01-14T15:18:31Z</time>
      </trkpt>
      <trkpt lat="48.21319" lon="6.72901">
        <ele>467.5</ele>
        <time>2025-01-14T15:18:39Z</time>
      </trkpt>
      <trkpt lat="48.21329" lon="6.729">
        <ele>467.3</ele>
        <time>2025-01-14T15:18:47Z</time>
      </trkpt>
      <trkpt lat="48.21338" lon="6.72899">
        <ele>467.2</ele>
        <time>2025-01-14T15:18:55Z</time>
      </trkpt>
      <trkpt lat="48.21348" lon="6.72898">
        <ele>467</ele>
        <time>2025-01-14T15:19:03Z</time>
      </trkpt>
      <trkpt lat="48.21358" lon="6.72897">
        <ele>466.8</ele>
        <time>2025-01-14T15:19:11Z</time>
      </trkpt>
      <trkpt lat="48.21367" lon="6.72897">
        <ele>466.7</ele>
        <time>2025-01-14T15:19:18Z</time>
      </trkpt>
      <trkpt lat="48.21377" lon="6.72896">
        <ele>466.5</ele>
        <time>2025-01-14T15:19:26Z</time>
      </trkpt>
      <trkpt lat="48.21386" lon="6.72896">
        <ele>466.3</ele>
        <time>2025-01-14T15:19:34Z</time>
      </trkpt>
      <trkpt lat="48.21396" lon="6.72894">
        <ele>466.2</ele>
        <time>2025-01-14T15:19:42Z</time>
      </trkpt>
      <trkpt lat="48.21405" lon="6.72893">
        <ele>466.1</ele>
        <time>2025-01-14T15:19:50Z</time>
      </trkpt>
      <trkpt lat="48.21415" lon="6.72892">
        <ele>466.1</ele>
        <time>2025-01-14T15:19:58Z</time>
      </trkpt>
      <trkpt lat="48.21425" lon="6.72892">
        <ele>466</ele>
        <time>2025-01-14T15:20:06Z</time>
      </trkpt>
      <trkpt lat="48.21426" lon="6.72877">
        <ele>466.2</ele>
        <time>2025-01-14T15:20:15Z</time>
      </trkpt>
      <trkpt lat="48.21424" lon="6.72864">
        <ele>466.2</ele>
        <time>2025-01-14T15:20:22Z</time>
      </trkpt>
      <trkpt lat="48.21422" lon="6.7285">
        <ele>465.9</ele>
        <time>2025-01-14T15:20:30Z</time>
      </trkpt>
      <trkpt lat="48.21418" lon="6.72837">
        <ele>465.4</ele>
        <time>2025-01-14T15:20:38Z</time>
      </trkpt>
      <trkpt lat="48.21416" lon="6.72822">
        <ele>464.6</ele>
        <time>2025-01-14T15:20:46Z</time>
      </trkpt>
      <trkpt lat="48.21412" lon="6.72809">
        <ele>463.6</ele>
        <time>2025-01-14T15:20:55Z</time>
      </trkpt>
      <trkpt lat="48.21403" lon="6.72803">
        <ele>462.4</ele>
        <time>2025-01-14T15:21:04Z</time>
      </trkpt>
      <trkpt lat="48.21398" lon="6.72791">
        <ele>461.1</ele>
        <time>2025-01-14T15:21:13Z</time>
      </trkpt>
      <trkpt lat="48.21395" lon="6.72776">
        <ele>459.8</ele>
        <time>2025-01-14T15:21:21Z</time>
      </trkpt>
      <trkpt lat="48.21393" lon="6.72762">
        <ele>458.6</ele>
        <time>2025-01-14T15:21:31Z</time>
      </trkpt>
      <trkpt lat="48.2139" lon="6.72748">
        <ele>457.4</ele>
        <time>2025-01-14T15:21:37Z</time>
      </trkpt>
      <trkpt lat="48.21387" lon="6.72735">
        <ele>456.3</ele>
        <time>2025-01-14T15:21:44Z</time>
      </trkpt>
      <trkpt lat="48.21386" lon="6.72721">
        <ele>455.1</ele>
        <time>2025-01-14T15:21:52Z</time>
      </trkpt>
      <trkpt lat="48.21386" lon="6.72707">
        <ele>454</ele>
        <time>2025-01-14T15:21:59Z</time>
      </trkpt>
      <trkpt lat="48.2139" lon="6.72692">
        <ele>452.8</ele>
        <time>2025-01-14T15:22:06Z</time>
      </trkpt>
      <trkpt lat="48.21392" lon="6.72679">
        <ele>451.8</ele>
        <time>2025-01-14T15:22:13Z</time>
      </trkpt>
      <trkpt lat="48.21393" lon="6.72664">
        <ele>450.8</ele>
        <time>2025-01-14T15:22:20Z</time>
      </trkpt>
      <trkpt lat="48.21394" lon="6.7265">
        <ele>450.1</ele>
        <time>2025-01-14T15:22:28Z</time>
      </trkpt>
      <trkpt lat="48.21393" lon="6.72637">
        <ele>449.4</ele>
        <time>2025-01-14T15:22:36Z</time>
      </trkpt>
      <trkpt lat="48.21393" lon="6.72623">
        <ele>448.8</ele>
        <time>2025-01-14T15:22:44Z</time>
      </trkpt>
      <trkpt lat="48.21395" lon="6.7261">
        <ele>448.2</ele>
        <time>2025-01-14T15:22:51Z</time>
      </trkpt>
      <trkpt lat="48.21396" lon="6.72596">
        <ele>447.6</ele>
        <time>2025-01-14T15:22:58Z</time>
      </trkpt>
      <trkpt lat="48.21405" lon="6.72586">
        <ele>447.1</ele>
        <time>2025-01-14T15:23:03Z</time>
      </trkpt>
      <trkpt lat="48.21411" lon="6.72575">
        <ele>446.8</ele>
        <time>2025-01-14T15:23:08Z</time>
      </trkpt>
      <trkpt lat="48.21421" lon="6.72572">
        <ele>446.6</ele>
        <time>2025-01-14T15:23:15Z</time>
      </trkpt>
      <trkpt lat="48.21431" lon="6.72572">
        <ele>446.3</ele>
        <time>2025-01-14T15:23:23Z</time>
      </trkpt>
      <trkpt lat="48.2144" lon="6.72572">
        <ele>446.1</ele>
        <time>2025-01-14T15:23:30Z</time>
      </trkpt>
      <trkpt lat="48.21449" lon="6.72573">
        <ele>445.9</ele>
        <time>2025-01-14T15:23:36Z</time>
      </trkpt>
      <trkpt lat="48.21459" lon="6.72574">
        <ele>445.7</ele>
        <time>2025-01-14T15:23:43Z</time>
      </trkpt>
      <trkpt lat="48.21469" lon="6.72571">
        <ele>445.4</ele>
        <time>2025-01-14T15:23:51Z</time>
      </trkpt>
      <trkpt lat="48.21479" lon="6.7257">
        <ele>445.2</ele>
        <time>2025-01-14T15:23:58Z</time>
      </trkpt>
      <trkpt lat="48.21489" lon="6.72573">
        <ele>445</ele>
        <time>2025-01-14T15:24:05Z</time>
      </trkpt>
      <trkpt lat="48.21498" lon="6.72571">
        <ele>444.8</ele>
        <time>2025-01-14T15:24:12Z</time>
      </trkpt>
      <trkpt lat="48.21509" lon="6.72574">
        <ele>444.6</ele>
        <time>2025-01-14T15:24:19Z</time>
      </trkpt>
      <trkpt lat="48.21519" lon="6.72575">
        <ele>444.4</ele>
        <time>2025-01-14T15:24:26Z</time>
      </trkpt>
      <trkpt lat="48.21529" lon="6.72575">
        <ele>444.2</ele>
        <time>2025-01-14T15:24:34Z</time>
      </trkpt>
      <trkpt lat="48.21538" lon="6.72575">
        <ele>444.2</ele>
        <time>2025-01-14T15:24:41Z</time>
      </trkpt>
      <trkpt lat="48.21547" lon="6.72574">
        <ele>444.1</ele>
        <time>2025-01-14T15:24:48Z</time>
      </trkpt>
      <trkpt lat="48.21556" lon="6.72573">
        <ele>443.9</ele>
        <time>2025-01-14T15:24:55Z</time>
      </trkpt>
      <trkpt lat="48.21565" lon="6.7257">
        <ele>443.8</ele>
        <time>2025-01-14T15:25:02Z</time>
      </trkpt>
      <trkpt lat="48.21575" lon="6.72566">
        <ele>443.6</ele>
        <time>2025-01-14T15:25:09Z</time>
      </trkpt>
      <trkpt lat="48.21584" lon="6.72562">
        <ele>443.4</ele>
        <time>2025-01-14T15:25:16Z</time>
      </trkpt>
      <trkpt lat="48.21594" lon="6.72562">
        <ele>443.2</ele>
        <time>2025-01-14T15:25:24Z</time>
      </trkpt>
      <trkpt lat="48.21604" lon="6.72562">
        <ele>443</ele>
        <time>2025-01-14T15:25:32Z</time>
      </trkpt>
      <trkpt lat="48.21613" lon="6.72564">
        <ele>442.7</ele>
        <time>2025-01-14T15:25:40Z</time>
      </trkpt>
      <trkpt lat="48.21623" lon="6.72565">
        <ele>442.3</ele>
        <time>2025-01-14T15:25:48Z</time>
      </trkpt>
      <trkpt lat="48.21632" lon="6.72568">
        <ele>441.9</ele>
        <time>2025-01-14T15:25:55Z</time>
      </trkpt>
      <trkpt lat="48.21642" lon="6.72571">
        <ele>441.5</ele>
        <time>2025-01-14T15:26:01Z</time>
      </trkpt>
      <trkpt lat="48.21651" lon="6.7257">
        <ele>441</ele>
        <time>2025-01-14T15:26:09Z</time>
      </trkpt>
      <trkpt lat="48.21661" lon="6.72569">
        <ele>440.6</ele>
        <time>2025-01-14T15:26:16Z</time>
      </trkpt>
      <trkpt lat="48.2167" lon="6.72566">
        <ele>440.2</ele>
        <time>2025-01-14T15:26:23Z</time>
      </trkpt>
      <trkpt lat="48.2168" lon="6.72564">
        <ele>439.9</ele>
        <time>2025-01-14T15:26:31Z</time>
      </trkpt>
      <trkpt lat="48.21689" lon="6.72566">
        <ele>439.6</ele>
        <time>2025-01-14T15:26:40Z</time>
      </trkpt>
      <trkpt lat="48.21698" lon="6.72568">
        <ele>439.4</ele>
        <time>2025-01-14T15:26:47Z</time>
      </trkpt>
      <trkpt lat="48.21708" lon="6.72568">
        <ele>439.1</ele>
        <time>2025-01-14T15:26:55Z</time>
      </trkpt>
      <trkpt lat="48.21717" lon="6.7257">
        <ele>438.8</ele>
        <time>2025-01-14T15:27:03Z</time>
      </trkpt>
      <trkpt lat="48.21726" lon="6.72575">
        <ele>438.7</ele>
        <time>2025-01-14T15:27:11Z</time>
      </trkpt>
      <trkpt lat="48.21735" lon="6.7258">
        <ele>438.7</ele>
        <time>2025-01-14T15:27:19Z</time>
      </trkpt>
      <trkpt lat="48.21744" lon="6.72579">
        <ele>438.6</ele>
        <time>2025-01-14T15:27:27Z</time>
      </trkpt>
      <trkpt lat="48.21754" lon="6.72574">
        <ele>438.4</ele>
        <time>2025-01-14T15:27:36Z</time>
      </trkpt>
      <trkpt lat="48.21763" lon="6.72568">
        <ele>438.3</ele>
        <time>2025-01-14T15:27:45Z</time>
      </trkpt>
      <trkpt lat="48.21772" lon="6.7256">
        <ele>438.1</ele>
        <time>2025-01-14T15:27:53Z</time>
      </trkpt>
      <trkpt lat="48.2178" lon="6.72552">
        <ele>438.1</ele>
        <time>2025-01-14T15:28:01Z</time>
      </trkpt>
      <trkpt lat="48.21788" lon="6.72546">
        <ele>438</ele>
        <time>2025-01-14T15:28:09Z</time>
      </trkpt>
      <trkpt lat="48.21796" lon="6.7254">
        <ele>438</ele>
        <time>2025-01-14T15:28:16Z</time>
      </trkpt>
      <trkpt lat="48.21804" lon="6.72531">
        <ele>438</ele>
        <time>2025-01-14T15:28:24Z</time>
      </trkpt>
      <trkpt lat="48.21811" lon="6.72522">
        <ele>437.9</ele>
        <time>2025-01-14T15:28:31Z</time>
      </trkpt>
      <trkpt lat="48.21817" lon="6.72512">
        <ele>437.9</ele>
        <time>2025-01-14T15:28:38Z</time>
      </trkpt>
      <trkpt lat="48.21825" lon="6.72503">
        <ele>437.8</ele>
        <time>2025-01-14T15:28:45Z</time>
      </trkpt>
      <trkpt lat="48.21833" lon="6.72496">
        <ele>437.8</ele>
        <time>2025-01-14T15:28:51Z</time>
      </trkpt>
      <trkpt lat="48.21839" lon="6.72486">
        <ele>437.8</ele>
        <time>2025-01-14T15:28:58Z</time>
      </trkpt>
      <trkpt lat="48.21846" lon="6.72476">
        <ele>437.8</ele>
        <time>2025-01-14T15:29:05Z</time>
      </trkpt>
      <trkpt lat="48.21852" lon="6.72466">
        <ele>437.8</ele>
        <time>2025-01-14T15:29:12Z</time>
      </trkpt>
      <trkpt lat="48.21859" lon="6.72457">
        <ele>437.8</ele>
        <time>2025-01-14T15:29:19Z</time>
      </trkpt>
      <trkpt lat="48.21868" lon="6.72449">
        <ele>437.7</ele>
        <time>2025-01-14T15:29:27Z</time>
      </trkpt>
      <trkpt lat="48.21876" lon="6.72441">
        <ele>437.7</ele>
        <time>2025-01-14T15:29:35Z</time>
      </trkpt>
      <trkpt lat="48.21884" lon="6.72433">
        <ele>437.6</ele>
        <time>2025-01-14T15:29:42Z</time>
      </trkpt>
      <trkpt lat="48.21892" lon="6.72425">
        <ele>437.5</ele>
        <time>2025-01-14T15:29:50Z</time>
      </trkpt>
      <trkpt lat="48.219" lon="6.72414">
        <ele>437.5</ele>
        <time>2025-01-14T15:29:58Z</time>
      </trkpt>
      <trkpt lat="48.219" lon="6.7241">
        <ele>437.5</ele>
        <time>2025-01-14T15:30:06Z</time>
      </trkpt>
      <trkpt lat="48.21899" lon="6.72407">
        <ele>437.4</ele>
        <time>2025-01-14T15:30:14Z</time>
      </trkpt>
      <trkpt lat="48.21899" lon="6.72403">
        <ele>437.4</ele>
        <time>2025-01-14T15:30:22Z</time>
      </trkpt>
      <trkpt lat="48.21898" lon="6.72399">
        <ele>437.4</ele>
        <time>2025-01-14T15:30:29Z</time>
      </trkpt>
      <trkpt lat="48.21898" lon="6.72396">
        <ele>437.4</ele>
        <time>2025-01-14T15:30:37Z</time>
      </trkpt>
      <trkpt lat="48.21897" lon="6.72392">
        <ele>437.4</ele>
        <time>2025-01-14T15:30:44Z</time>
      </trkpt>
      <trkpt lat="48.21897" lon="6.72388">
        <ele>437.3</ele>
        <time>2025-01-14T15:30:45Z</time>
      </trkpt>
      <trkpt lat="48.21896" lon="6.72385">
        <ele>437.3</ele>
        <time>2025-01-14T15:30:46Z</time>
      </trkpt>
      <trkpt lat="48.21895" lon="6.72381">
        <ele>437.3</ele>
        <time>2025-01-14T15:30:56Z</time>
      </trkpt>
      <trkpt lat="48.21895" lon="6.72377">
        <ele>437.3</ele>
        <time>2025-01-14T15:30:57Z</time>
      </trkpt>
      <trkpt lat="48.21894" lon="6.72374">
        <ele>437.3</ele>
        <time>2025-01-14T15:30:58Z</time>
      </trkpt>
      <trkpt lat="48.21894" lon="6.7237">
        <ele>437.2</ele>
        <time>2025-01-14T15:31:05Z</time>
      </trkpt>
      <trkpt lat="48.21893" lon="6.72366">
        <ele>437.2</ele>
        <time>2025-01-14T15:31:12Z</time>
      </trkpt>
      <trkpt lat="48.21893" lon="6.72362">
        <ele>437.2</ele>
        <time>2025-01-14T15:31:19Z</time>
      </trkpt>
      <trkpt lat="48.21892" lon="6.72359">
        <ele>437.2</ele>
        <time>2025-01-14T15:31:26Z</time>
      </trkpt>
      <trkpt lat="48.21892" lon="6.72355">
        <ele>437.2</ele>
        <time>2025-01-14T15:31:34Z</time>
      </trkpt>
      <trkpt lat="48.21891" lon="6.72351">
        <ele>437.2</ele>
        <time>2025-01-14T15:31:39Z</time>
      </trkpt>
      <trkpt lat="48.21891" lon="6.72348">
        <ele>437.2</ele>
        <time>2025-01-14T15:31:39Z</time>
      </trkpt>
      <trkpt lat="48.21891" lon="6.72348">
        <ele>437.2</ele>
        <time>2025-01-14T15:31:39Z</time>
      </trkpt>
    </trkseg>
  </trk>
</gpx>